Terminal Aerodrome Forecast
Issued by NWS

Home | Current Version | Previous Version | Text Only | Print | Product List | Glossary On
Versions: 1 2 3 4 5 6 7 8 9 10 11 12 13 14 15 16 17 18 19 20 21 22
000
FTUS41 KBOX 190818 AAA
TAFMHT
TAF AMD
KMHT 190818Z 1908/2006 00000KT P6SM FEW250
     FM191130 28005KT P6SM FEW250
     FM191300 31008KT P6SM FEW250
     FM191500 32013G25KT P6SM SCT050
     FM200000 34008KT P6SM SKC
     FM200400 35004KT P6SM SKC=

USA.gov is the U.S. government's official web portal to all federal, state and local government web resources and services.